sensor_id;sensor_type;location;lat;lon;timestamp;P1;durP1;ratioP1;P2;durP2;ratioP2
10661;SDS011;5379;51.034;7.006;2023-04-16T04:31:55;26.87;;;17.73;;
10661;SDS011;5379;51.034;7.006;2023-04-16T04:34:23;27.73;;;17.03;;
10661;SDS011;5379;51.034;7.006;2023-04-16T04:36:50;21.00;;;16.97;;
10661;SDS011;5379;51.034;7.006;2023-04-16T04:39:16;16.17;;;13.70;;
10661;SDS011;5379;51.034;7.006;2023-04-16T04:41:45;20.67;;;16.10;;
10661;SDS011;5379;51.034;7.006;2023-04-16T04:44:12;16.63;;;14.93;;
10661;SDS011;5379;51.034;7.006;2023-04-16T04:46:39;18.30;;;14.67;;
10661;SDS011;5379;51.034;7.006;2023-04-16T04:49:08;17.07;;;14.27;;
10661;SDS011;5379;51.034;7.006;2023-04-16T04:51:35;15.93;;;14.23;;
10661;SDS011;5379;51.034;7.006;2023-04-16T04:54:02;21.10;;;15.43;;
10661;SDS011;5379;51.034;7.006;2023-04-16T04:56:28;18.87;;;16.20;;
10661;SDS011;5379;51.034;7.006;2023-04-16T04:58:55;23.77;;;14.60;;
10661;SDS011;5379;51.034;7.006;2023-04-16T05:01:22;16.40;;;14.60;;
10661;SDS011;5379;51.034;7.006;2023-04-16T05:03:49;21.77;;;15.90;;
10661;SDS011;5379;51.034;7.006;2023-04-16T05:06:17;19.73;;;16.30;;
10661;SDS011;5379;51.034;7.006;2023-04-16T05:08:44;18.70;;;15.70;;
10661;SDS011;5379;51.034;7.006;2023-04-16T05:11:11;17.50;;;15.17;;
10661;SDS011;5379;51.034;7.006;2023-04-16T05:13:38;22.20;;;16.97;;
10661;SDS011;5379;51.034;7.006;2023-04-16T05:16:06;21.67;;;17.47;;
10661;SDS011;5379;51.034;7.006;2023-04-16T05:18:33;16.27;;;14.60;;
10661;SDS011;5379;51.034;7.006;2023-04-16T05:21:00;25.93;;;18.07;;
10661;SDS011;5379;51.034;7.006;2023-04-16T05:23:28;28.70;;;17.10;;
10661;SDS011;5379;51.034;7.006;2023-04-16T05:25:55;19.70;;;15.90;;
10661;SDS011;5379;51.034;7.006;2023-04-16T05:28:22;19.80;;;16.53;;
10661;SDS011;5379;51.034;7.006;2023-04-16T05:30:49;22.03;;;17.67;;
10661;SDS011;5379;51.034;7.006;2023-04-16T05:33:16;21.57;;;16.97;;
10661;SDS011;5379;51.034;7.006;2023-04-16T05:35:43;21.00;;;17.00;;
10661;SDS011;5379;51.034;7.006;2023-04-16T05:38:10;27.67;;;18.80;;
10661;SDS011;5379;51.034;7.006;2023-04-16T05:40:38;23.73;;;17.50;;
10661;SDS011;5379;51.034;7.006;2023-04-16T05:43:05;19.13;;;15.97;;
10661;SDS011;5379;51.034;7.006;2023-04-16T05:45:32;20.07;;;16.40;;
10661;SDS011;5379;51.034;7.006;2023-04-16T05:48:03;18.47;;;16.33;;
10661;SDS011;5379;51.034;7.006;2023-04-16T05:50:31;17.77;;;15.03;;
10661;SDS011;5379;51.034;7.006;2023-04-16T05:52:57;16.97;;;15.07;;
10661;SDS011;5379;51.034;7.006;2023-04-16T05:55:24;25.07;;;18.30;;
10661;SDS011;5379;51.034;7.006;2023-04-16T05:57:53;20.33;;;15.20;;
10661;SDS011;5379;51.034;7.006;2023-04-16T06:00:20;23.97;;;16.37;;
10661;SDS011;5379;51.034;7.006;2023-04-16T06:02:47;26.63;;;16.73;;
10661;SDS011;5379;51.034;7.006;2023-04-16T06:05:13;17.07;;;14.80;;
10661;SDS011;5379;51.034;7.006;2023-04-16T06:07:40;20.40;;;16.00;;
10661;SDS011;5379;51.034;7.006;2023-04-16T06:10:08;20.17;;;15.90;;
10661;SDS011;5379;51.034;7.006;2023-04-16T06:12:35;21.23;;;16.23;;
10661;SDS011;5379;51.034;7.006;2023-04-16T06:15:04;16.63;;;14.83;;
10661;SDS011;5379;51.034;7.006;2023-04-16T06:17:32;18.93;;;14.40;;
10661;SDS011;5379;51.034;7.006;2023-04-16T06:19:59;17.23;;;15.23;;
10661;SDS011;5379;51.034;7.006;2023-04-16T06:22:26;19.80;;;14.50;;
10661;SDS011;5379;51.034;7.006;2023-04-16T06:24:53;18.57;;;14.13;;
10661;SDS011;5379;51.034;7.006;2023-04-16T06:27:20;15.23;;;13.63;;
10661;SDS011;5379;51.034;7.006;2023-04-16T06:29:47;20.57;;;14.07;;
10661;SDS011;5379;51.034;7.006;2023-04-16T06:32:16;16.63;;;13.53;;
10661;SDS011;5379;51.034;7.006;2023-04-16T06:34:43;14.97;;;13.07;;
10661;SDS011;5379;51.034;7.006;2023-04-16T06:37:10;12.10;;;10.90;;
10661;SDS011;5379;51.034;7.006;2023-04-16T06:39:36;13.40;;;12.00;;
10661;SDS011;5379;51.034;7.006;2023-04-16T06:42:03;14.60;;;12.80;;
10661;SDS011;5379;51.034;7.006;2023-04-16T06:44:30;12.70;;;11.37;;
10661;SDS011;5379;51.034;7.006;2023-04-16T06:46:57;16.47;;;12.60;;
10661;SDS011;5379;51.034;7.006;2023-04-16T06:49:26;13.83;;;10.90;;
10661;SDS011;5379;51.034;7.006;2023-04-16T06:51:53;15.27;;;11.90;;
10661;SDS011;5379;51.034;7.006;2023-04-16T06:54:20;14.40;;;10.50;;
10661;SDS011;5379;51.034;7.006;2023-04-16T06:56:47;13.13;;;10.97;;
10661;SDS011;5379;51.034;7.006;2023-04-16T06:59:14;11.53;;;10.27;;
10661;SDS011;5379;51.034;7.006;2023-04-16T07:01:41;9.67;;;8.77;;
10661;SDS011;5379;51.034;7.006;2023-04-16T07:04:08;16.13;;;10.93;;
10661;SDS011;5379;51.034;7.006;2023-04-16T07:06:36;11.43;;;9.73;;
10661;SDS011;5379;51.034;7.006;2023-04-16T07:09:03;12.13;;;10.00;;
10661;SDS011;5379;51.034;7.006;2023-04-16T07:11:30;11.50;;;8.93;;
10661;SDS011;5379;51.034;7.006;2023-04-16T07:13:57;12.97;;;9.10;;
10661;SDS011;5379;51.034;7.006;2023-04-16T07:16:24;9.93;;;8.33;;
10661;SDS011;5379;51.034;7.006;2023-04-16T07:18:51;14.13;;;10.33;;
10661;SDS011;5379;51.034;7.006;2023-04-16T07:21:17;11.17;;;9.33;;
10661;SDS011;5379;51.034;7.006;2023-04-16T07:23:46;12.10;;;9.40;;
10661;SDS011;5379;51.034;7.006;2023-04-16T07:26:13;9.57;;;8.57;;
10661;SDS011;5379;51.034;7.006;2023-04-16T07:28:40;12.67;;;10.13;;
10661;SDS011;5379;51.034;7.006;2023-04-16T07:31:07;8.80;;;8.00;;
10661;SDS011;5379;51.034;7.006;2023-04-16T07:33:34;11.90;;;9.13;;
10661;SDS011;5379;51.034;7.006;2023-04-16T07:36:01;10.30;;;8.10;;
10661;SDS011;5379;51.034;7.006;2023-04-16T07:38:28;11.23;;;9.00;;
10661;SDS011;5379;51.034;7.006;2023-04-16T07:40:56;9.13;;;8.23;;
10661;SDS011;5379;51.034;7.006;2023-04-16T07:43:23;9.43;;;8.43;;
10661;SDS011;5379;51.034;7.006;2023-04-16T07:45:50;9.90;;;8.90;;
10661;SDS011;5379;51.034;7.006;2023-04-16T07:48:17;9.13;;;8.07;;
10661;SDS011;5379;51.034;7.006;2023-04-16T07:50:44;9.60;;;8.67;;
10661;SDS011;5379;51.034;7.006;2023-04-16T07:53:11;9.77;;;8.77;;
10661;SDS011;5379;51.034;7.006;2023-04-16T07:55:38;9.87;;;8.93;;
10661;SDS011;5379;51.034;7.006;2023-04-16T07:58:06;9.60;;;7.97;;
10661;SDS011;5379;51.034;7.006;2023-04-16T08:00:33;34.57;;;8.53;;
10661;SDS011;5379;51.034;7.006;2023-04-16T08:03:00;11.97;;;8.60;;
10661;SDS011;5379;51.034;7.006;2023-04-16T08:05:27;8.60;;;7.80;;
10661;SDS011;5379;51.034;7.006;2023-04-16T08:07:54;10.07;;;8.30;;
10661;SDS011;5379;51.034;7.006;2023-04-16T08:10:21;10.30;;;9.27;;
10661;SDS011;5379;51.034;7.006;2023-04-16T08:12:48;11.23;;;8.93;;
10661;SDS011;5379;51.034;7.006;2023-04-16T08:15:17;12.73;;;8.87;;
10661;SDS011;5379;51.034;7.006;2023-04-16T08:17:43;10.40;;;8.30;;
10661;SDS011;5379;51.034;7.006;2023-04-16T08:20:10;11.47;;;8.50;;
10661;SDS011;5379;51.034;7.006;2023-04-16T08:22:37;9.03;;;8.23;;
10661;SDS011;5379;51.034;7.006;2023-04-16T08:25:05;11.73;;;8.90;;
10661;SDS011;5379;51.034;7.006;2023-04-16T08:27:33;7.87;;;7.17;;
10661;SDS011;5379;51.034;7.006;2023-04-16T08:30:00;12.17;;;8.30;;
10661;SDS011;5379;51.034;7.006;2023-04-16T08:32:28;10.67;;;8.47;;
10661;SDS011;5379;51.034;7.006;2023-04-16T08:34:56;11.10;;;8.70;;
10661;SDS011;5379;51.034;7.006;2023-04-16T08:37:23;16.03;;;9.03;;
10661;SDS011;5379;51.034;7.006;2023-04-16T08:39:50;8.80;;;7.93;;
10661;SDS011;5379;51.034;7.006;2023-04-16T08:42:18;10.60;;;9.60;;
10661;SDS011;5379;51.034;7.006;2023-04-16T08:44:49;8.43;;;7.73;;
10661;SDS011;5379;51.034;7.006;2023-04-16T08:47:21;9.37;;;8.47;;
10661;SDS011;5379;51.034;7.006;2023-04-16T08:49:52;10.90;;;8.90;;
10661;SDS011;5379;51.034;7.006;2023-04-16T08:52:23;8.27;;;7.50;;
10661;SDS011;5379;51.034;7.006;2023-04-16T08:54:55;9.47;;;8.57;;
10661;SDS011;5379;51.034;7.006;2023-04-16T08:57:29;10.30;;;8.77;;
10661;SDS011;5379;51.034;7.006;2023-04-16T09:00:04;8.57;;;7.80;;
10661;SDS011;5379;51.034;7.006;2023-04-16T09:02:33;9.00;;;8.10;;
10661;SDS011;5379;51.034;7.006;2023-04-16T09:05:01;8.17;;;7.27;;
10661;SDS011;5379;51.034;7.006;2023-04-16T09:07:31;10.23;;;9.23;;
10661;SDS011;5379;51.034;7.006;2023-04-16T09:09:59;8.53;;;7.73;;
10661;SDS011;5379;51.034;7.006;2023-04-16T09:12:26;9.97;;;8.40;;
10661;SDS011;5379;51.034;7.006;2023-04-16T09:14:53;9.10;;;7.57;;
10661;SDS011;5379;51.034;7.006;2023-04-16T09:17:23;12.83;;;8.80;;
10661;SDS011;5379;51.034;7.006;2023-04-16T09:19:51;8.67;;;7.87;;
10661;SDS011;5379;51.034;7.006;2023-04-16T09:22:19;9.47;;;8.57;;
10661;SDS011;5379;51.034;7.006;2023-04-16T09:24:46;7.73;;;6.97;;
10661;SDS011;5379;51.034;7.006;2023-04-16T09:27:13;9.47;;;8.07;;
10661;SDS011;5379;51.034;7.006;2023-04-16T09:29:40;9.00;;;8.20;;
10661;SDS011;5379;51.034;7.006;2023-04-16T09:32:08;9.20;;;8.40;;
10661;SDS011;5379;51.034;7.006;2023-04-16T09:34:52;10.40;;;8.37;;
10661;SDS011;5379;51.034;7.006;2023-04-16T09:37:21;8.20;;;7.40;;
10661;SDS011;5379;51.034;7.006;2023-04-16T09:39:51;8.17;;;7.47;;
10661;SDS011;5379;51.034;7.006;2023-04-16T09:42:22;9.43;;;7.37;;
10661;SDS011;5379;51.034;7.006;2023-04-16T09:44:51;8.50;;;7.70;;
10661;SDS011;5379;51.034;7.006;2023-04-16T09:47:18;9.73;;;8.83;;
10661;SDS011;5379;51.034;7.006;2023-04-16T09:49:46;9.20;;;8.27;;
10661;SDS011;5379;51.034;7.006;2023-04-16T09:52:14;8.00;;;6.90;;
10661;SDS011;5379;51.034;7.006;2023-04-16T09:54:47;10.73;;;9.27;;
10661;SDS011;5379;51.034;7.006;2023-04-16T09:57:17;8.83;;;7.93;;
10661;SDS011;5379;51.034;7.006;2023-04-16T09:59:46;7.73;;;7.03;;
10661;SDS011;5379;51.034;7.006;2023-04-16T10:02:13;9.50;;;8.03;;
10661;SDS011;5379;51.034;7.006;2023-04-16T10:04:47;11.07;;;7.10;;
10661;SDS011;5379;51.034;7.006;2023-04-16T10:07:15;8.10;;;7.30;;
10661;SDS011;5379;51.034;7.006;2023-04-16T10:09:42;7.70;;;7.00;;
10661;SDS011;5379;51.034;7.006;2023-04-16T10:12:10;8.13;;;7.43;;
10661;SDS011;5379;51.034;7.006;2023-04-16T10:14:37;7.47;;;6.77;;
10661;SDS011;5379;51.034;7.006;2023-04-16T10:17:05;7.87;;;7.17;;
10661;SDS011;5379;51.034;7.006;2023-04-16T10:19:32;7.87;;;7.17;;
10661;SDS011;5379;51.034;7.006;2023-04-16T10:21:59;7.73;;;6.97;;
10661;SDS011;5379;51.034;7.006;2023-04-16T10:24:27;8.73;;;7.33;;
10661;SDS011;5379;51.034;7.006;2023-04-16T10:26:54;7.83;;;7.13;;
10661;SDS011;5379;51.034;7.006;2023-04-16T10:29:23;6.30;;;5.70;;
10661;SDS011;5379;51.034;7.006;2023-04-16T10:31:52;7.40;;;6.80;;
10661;SDS011;5379;51.034;7.006;2023-04-16T10:34:20;8.07;;;7.37;;
10661;SDS011;5379;51.034;7.006;2023-04-16T10:36:48;8.10;;;7.37;;
10661;SDS011;5379;51.034;7.006;2023-04-16T10:39:17;7.50;;;6.13;;
10661;SDS011;5379;51.034;7.006;2023-04-16T10:41:45;7.70;;;7.10;;
10661;SDS011;5379;51.034;7.006;2023-04-16T10:44:14;8.63;;;7.90;;
10661;SDS011;5379;51.034;7.006;2023-04-16T10:46:45;7.70;;;7.10;;
10661;SDS011;5379;51.034;7.006;2023-04-16T10:49:15;8.27;;;7.57;;
10661;SDS011;5379;51.034;7.006;2023-04-16T10:51:51;7.87;;;7.27;;
10661;SDS011;5379;51.034;7.006;2023-04-16T10:54:20;8.00;;;7.40;;
10661;SDS011;5379;51.034;7.006;2023-04-16T10:56:50;7.27;;;6.67;;
10661;SDS011;5379;51.034;7.006;2023-04-16T10:59:18;9.00;;;8.20;;
10661;SDS011;5379;51.034;7.006;2023-04-16T11:01:47;6.63;;;6.13;;
10661;SDS011;5379;51.034;7.006;2023-04-16T11:04:25;6.77;;;6.27;;
10661;SDS011;5379;51.034;7.006;2023-04-16T11:06:59;6.50;;;6.00;;
10661;SDS011;5379;51.034;7.006;2023-04-16T11:12:28;7.70;;;6.97;;
10661;SDS011;5379;51.034;7.006;2023-04-16T11:15:00;7.40;;;6.80;;
10661;SDS011;5379;51.034;7.006;2023-04-16T11:17:31;8.07;;;7.37;;
10661;SDS011;5379;51.034;7.006;2023-04-16T11:20:02;9.20;;;8.30;;
10661;SDS011;5379;51.034;7.006;2023-04-16T11:22:30;10.90;;;7.60;;
10661;SDS011;5379;51.034;7.006;2023-04-16T11:25:00;8.13;;;7.50;;
10661;SDS011;5379;51.034;7.006;2023-04-16T11:27:29;7.50;;;6.90;;
10661;SDS011;5379;51.034;7.006;2023-04-16T11:29:57;6.27;;;5.87;;
10661;SDS011;5379;51.034;7.006;2023-04-16T11:32:25;8.00;;;7.30;;
10661;SDS011;5379;51.034;7.006;2023-04-16T11:34:54;7.00;;;6.47;;
10661;SDS011;5379;51.034;7.006;2023-04-16T11:37:30;10.13;;;7.13;;
10661;SDS011;5379;51.034;7.006;2023-04-16T11:39:58;6.53;;;6.03;;
10661;SDS011;5379;51.034;7.006;2023-04-16T11:42:25;6.83;;;6.23;;
10661;SDS011;5379;51.034;7.006;2023-04-16T11:44:53;10.80;;;7.17;;
10661;SDS011;5379;51.034;7.006;2023-04-16T11:47:21;7.33;;;6.70;;
10661;SDS011;5379;51.034;7.006;2023-04-16T11:49:48;8.47;;;7.67;;
10661;SDS011;5379;51.034;7.006;2023-04-16T11:52:25;7.67;;;6.93;;
10661;SDS011;5379;51.034;7.006;2023-04-16T11:54:55;8.70;;;7.20;;
10661;SDS011;5379;51.034;7.006;2023-04-16T11:57:23;7.13;;;6.53;;
10661;SDS011;5379;51.034;7.006;2023-04-16T11:59:51;6.87;;;6.27;;
10661;SDS011;5379;51.034;7.006;2023-04-16T12:02:32;12.57;;;6.80;;
10661;SDS011;5379;51.034;7.006;2023-04-16T12:05:01;5.77;;;5.27;;
10661;SDS011;5379;51.034;7.006;2023-04-16T12:07:30;6.83;;;6.30;;
10661;SDS011;5379;51.034;7.006;2023-04-16T12:10:06;6.87;;;6.27;;
10661;SDS011;5379;51.034;7.006;2023-04-16T12:12:34;5.70;;;5.20;;
10661;SDS011;5379;51.034;7.006;2023-04-16T12:15:01;5.60;;;5.07;;
10661;SDS011;5379;51.034;7.006;2023-04-16T12:17:28;6.67;;;6.20;;
10661;SDS011;5379;51.034;7.006;2023-04-16T12:19:56;6.77;;;6.23;;
10661;SDS011;5379;51.034;7.006;2023-04-16T12:22:25;7.40;;;6.67;;
10661;SDS011;5379;51.034;7.006;2023-04-16T12:25:01;5.87;;;5.47;;
10661;SDS011;5379;51.034;7.006;2023-04-16T12:27:45;5.80;;;5.40;;
10661;SDS011;5379;51.034;7.006;2023-04-16T12:30:15;5.40;;;5.00;;
10661;SDS011;5379;51.034;7.006;2023-04-16T12:32:44;4.73;;;4.43;;
10661;SDS011;5379;51.034;7.006;2023-04-16T12:35:12;4.03;;;3.83;;
10661;SDS011;5379;51.034;7.006;2023-04-16T12:37:39;5.17;;;4.67;;
10661;SDS011;5379;51.034;7.006;2023-04-16T12:40:08;5.60;;;5.20;;
10661;SDS011;5379;51.034;7.006;2023-04-16T12:42:35;5.20;;;4.80;;
10661;SDS011;5379;51.034;7.006;2023-04-16T12:45:03;5.73;;;5.27;;
10661;SDS011;5379;51.034;7.006;2023-04-16T12:47:31;4.97;;;4.57;;
10661;SDS011;5379;51.034;7.006;2023-04-16T12:49:58;4.77;;;4.47;;
10661;SDS011;5379;51.034;7.006;2023-04-16T12:52:25;4.13;;;3.93;;
10661;SDS011;5379;51.034;7.006;2023-04-16T12:54:52;5.27;;;4.87;;
10661;SDS011;5379;51.034;7.006;2023-04-16T12:57:20;5.37;;;4.87;;
10661;SDS011;5379;51.034;7.006;2023-04-16T12:59:52;4.37;;;3.97;;
10661;SDS011;5379;51.034;7.006;2023-04-16T13:02:19;4.67;;;4.27;;
10661;SDS011;5379;51.034;7.006;2023-04-16T13:04:46;4.40;;;4.00;;
10661;SDS011;5379;51.034;7.006;2023-04-16T13:07:13;5.57;;;5.17;;
10661;SDS011;5379;51.034;7.006;2023-04-16T13:09:40;4.80;;;4.50;;
10661;SDS011;5379;51.034;7.006;2023-04-16T13:12:08;4.53;;;4.23;;
10661;SDS011;5379;51.034;7.006;2023-04-16T13:14:36;4.60;;;4.30;;
10661;SDS011;5379;51.034;7.006;2023-04-16T13:17:03;5.00;;;4.60;;
10661;SDS011;5379;51.034;7.006;2023-04-16T13:19:30;5.53;;;5.13;;
10661;SDS011;5379;51.034;7.006;2023-04-16T13:21:57;5.33;;;4.90;;
10661;SDS011;5379;51.034;7.006;2023-04-16T13:24:24;5.03;;;4.73;;
10661;SDS011;5379;51.034;7.006;2023-04-16T13:26:51;5.73;;;5.17;;
10661;SDS011;5379;51.034;7.006;2023-04-16T13:29:18;5.33;;;4.93;;
10661;SDS011;5379;51.034;7.006;2023-04-16T13:31:46;5.00;;;4.60;;
10661;SDS011;5379;51.034;7.006;2023-04-16T13:34:13;5.63;;;5.13;;
10661;SDS011;5379;51.034;7.006;2023-04-16T13:36:40;4.77;;;4.47;;
10661;SDS011;5379;51.034;7.006;2023-04-16T13:39:07;8.63;;;5.63;;
10661;SDS011;5379;51.034;7.006;2023-04-16T13:41:35;5.00;;;4.70;;
10661;SDS011;5379;51.034;7.006;2023-04-16T13:44:02;5.63;;;4.90;;
10661;SDS011;5379;51.034;7.006;2023-04-16T13:46:29;5.43;;;4.93;;
10661;SDS011;5379;51.034;7.006;2023-04-16T13:48:58;5.07;;;4.77;;
10661;SDS011;5379;51.034;7.006;2023-04-16T13:51:25;5.60;;;5.17;;
10661;SDS011;5379;51.034;7.006;2023-04-16T13:53:52;5.53;;;5.03;;
10661;SDS011;5379;51.034;7.006;2023-04-16T13:56:19;5.80;;;5.40;;
10661;SDS011;5379;51.034;7.006;2023-04-16T13:58:46;5.50;;;4.77;;
10661;SDS011;5379;51.034;7.006;2023-04-16T14:01:13;8.20;;;5.23;;
10661;SDS011;5379;51.034;7.006;2023-04-16T14:03:41;6.13;;;5.23;;
10661;SDS011;5379;51.034;7.006;2023-04-16T14:06:09;6.87;;;5.30;;
10661;SDS011;5379;51.034;7.006;2023-04-16T14:08:36;4.73;;;4.43;;
10661;SDS011;5379;51.034;7.006;2023-04-16T14:11:03;5.90;;;5.50;;
10661;SDS011;5379;51.034;7.006;2023-04-16T14:13:30;5.67;;;5.10;;
10661;SDS011;5379;51.034;7.006;2023-04-16T14:15:57;4.93;;;4.63;;
10661;SDS011;5379;51.034;7.006;2023-04-16T14:18:24;5.50;;;4.83;;
10661;SDS011;5379;51.034;7.006;2023-04-16T14:20:51;5.80;;;5.00;;
10661;SDS011;5379;51.034;7.006;2023-04-16T14:23:19;6.93;;;5.43;;
10661;SDS011;5379;51.034;7.006;2023-04-16T14:25:47;5.27;;;4.77;;
10661;SDS011;5379;51.034;7.006;2023-04-16T14:28:14;4.87;;;4.47;;
10661;SDS011;5379;51.034;7.006;2023-04-16T14:30:41;5.60;;;5.20;;
10661;SDS011;5379;51.034;7.006;2023-04-16T14:33:08;6.23;;;5.73;;
10661;SDS011;5379;51.034;7.006;2023-04-16T14:35:35;5.07;;;4.70;;
10661;SDS011;5379;51.034;7.006;2023-04-16T14:38:02;5.00;;;4.70;;
10661;SDS011;5379;51.034;7.006;2023-04-16T14:40:30;3.97;;;3.77;;
10661;SDS011;5379;51.034;7.006;2023-04-16T14:42:57;4.43;;;4.13;;
10661;SDS011;5379;51.034;7.006;2023-04-16T14:45:24;5.43;;;4.93;;
10661;SDS011;5379;51.034;7.006;2023-04-16T14:47:52;3.93;;;3.73;;
10661;SDS011;5379;51.034;7.006;2023-04-16T14:50:19;3.93;;;3.63;;
10661;SDS011;5379;51.034;7.006;2023-04-16T14:52:46;5.20;;;4.70;;
10661;SDS011;5379;51.034;7.006;2023-04-16T14:55:13;4.87;;;4.47;;
10661;SDS011;5379;51.034;7.006;2023-04-16T14:57:42;4.03;;;3.73;;
10661;SDS011;5379;51.034;7.006;2023-04-16T15:00:09;4.67;;;4.27;;
10661;SDS011;5379;51.034;7.006;2023-04-16T15:02:37;5.13;;;4.73;;
10661;SDS011;5379;51.034;7.006;2023-04-16T15:05:04;5.37;;;4.97;;
10661;SDS011;5379;51.034;7.006;2023-04-16T15:07:33;5.00;;;4.50;;
10661;SDS011;5379;51.034;7.006;2023-04-16T15:10:00;5.10;;;4.73;;
10661;SDS011;5379;51.034;7.006;2023-04-16T15:12:27;4.33;;;4.03;;
10661;SDS011;5379;51.034;7.006;2023-04-16T15:14:56;5.03;;;4.40;;
10661;SDS011;5379;51.034;7.006;2023-04-16T15:17:23;4.53;;;4.17;;
10661;SDS011;5379;51.034;7.006;2023-04-16T15:19:51;4.73;;;4.43;;
10661;SDS011;5379;51.034;7.006;2023-04-16T15:22:18;5.40;;;5.00;;
10661;SDS011;5379;51.034;7.006;2023-04-16T15:24:45;5.43;;;4.93;;
10661;SDS011;5379;51.034;7.006;2023-04-16T15:27:12;5.50;;;5.10;;
10661;SDS011;5379;51.034;7.006;2023-04-16T15:29:39;5.00;;;4.70;;
10661;SDS011;5379;51.034;7.006;2023-04-16T15:32:07;5.57;;;5.17;;
10661;SDS011;5379;51.034;7.006;2023-04-16T15:34:34;5.20;;;4.70;;
10661;SDS011;5379;51.034;7.006;2023-04-16T15:37:01;4.87;;;4.57;;
10661;SDS011;5379;51.034;7.006;2023-04-16T15:39:30;5.40;;;4.97;;
10661;SDS011;5379;51.034;7.006;2023-04-16T15:41:57;5.07;;;4.67;;
10661;SDS011;5379;51.034;7.006;2023-04-16T15:44:24;5.13;;;4.30;;
10661;SDS011;5379;51.034;7.006;2023-04-16T15:46:51;5.07;;;4.67;;
10661;SDS011;5379;51.034;7.006;2023-04-16T15:49:19;5.17;;;4.77;;
10661;SDS011;5379;51.034;7.006;2023-04-16T15:51:46;5.10;;;4.77;;
10661;SDS011;5379;51.034;7.006;2023-04-16T15:54:13;4.83;;;4.53;;
10661;SDS011;5379;51.034;7.006;2023-04-16T15:56:40;5.43;;;5.03;;
10661;SDS011;5379;51.034;7.006;2023-04-16T15:59:07;9.40;;;4.90;;
10661;SDS011;5379;51.034;7.006;2023-04-16T16:01:34;4.67;;;4.37;;
10661;SDS011;5379;51.034;7.006;2023-04-16T16:04:01;4.43;;;4.13;;
10661;SDS011;5379;51.034;7.006;2023-04-16T16:06:29;5.27;;;4.77;;
10661;SDS011;5379;51.034;7.006;2023-04-16T16:08:57;4.53;;;4.23;;
10661;SDS011;5379;51.034;7.006;2023-04-16T16:11:24;4.80;;;4.40;;
10661;SDS011;5379;51.034;7.006;2023-04-16T16:13:51;4.47;;;4.17;;
10661;SDS011;5379;51.034;7.006;2023-04-16T16:16:18;3.90;;;3.60;;
10661;SDS011;5379;51.034;7.006;2023-04-16T16:18:46;4.27;;;3.97;;
10661;SDS011;5379;51.034;7.006;2023-04-16T16:21:13;4.13;;;3.83;;
10661;SDS011;5379;51.034;7.006;2023-04-16T16:23:41;5.07;;;4.63;;
10661;SDS011;5379;51.034;7.006;2023-04-16T16:26:08;4.03;;;3.73;;
10661;SDS011;5379;51.034;7.006;2023-04-16T16:28:35;3.83;;;3.53;;
10661;SDS011;5379;51.034;7.006;2023-04-16T16:31:02;4.07;;;3.67;;
10661;SDS011;5379;51.034;7.006;2023-04-16T16:33:30;5.47;;;4.97;;
10661;SDS011;5379;51.034;7.006;2023-04-16T16:35:56;3.87;;;3.63;;
10661;SDS011;5379;51.034;7.006;2023-04-16T16:38:23;5.30;;;4.80;;
10661;SDS011;5379;51.034;7.006;2023-04-16T16:40:52;6.23;;;4.17;;
10661;SDS011;5379;51.034;7.006;2023-04-16T16:43:19;4.53;;;4.00;;
10661;SDS011;5379;51.034;7.006;2023-04-16T16:45:46;4.13;;;3.83;;
10661;SDS011;5379;51.034;7.006;2023-04-16T16:48:13;4.20;;;3.90;;
10661;SDS011;5379;51.034;7.006;2023-04-16T16:50:40;3.30;;;3.20;;
10661;SDS011;5379;51.034;7.006;2023-04-16T16:53:07;8.53;;;3.83;;
10661;SDS011;5379;51.034;7.006;2023-04-16T16:55:34;6.00;;;4.13;;
10661;SDS011;5379;51.034;7.006;2023-04-16T16:58:03;3.67;;;3.40;;
10661;SDS011;5379;51.034;7.006;2023-04-16T17:00:30;3.80;;;3.50;;
10661;SDS011;5379;51.034;7.006;2023-04-16T17:02:57;3.93;;;3.70;;
10661;SDS011;5379;51.034;7.006;2023-04-16T17:05:24;3.70;;;3.40;;
10661;SDS011;5379;51.034;7.006;2023-04-16T17:07:51;3.90;;;3.70;;
10661;SDS011;5379;51.034;7.006;2023-04-16T17:10:18;4.27;;;3.97;;
10661;SDS011;5379;51.034;7.006;2023-04-16T17:12:45;5.00;;;4.50;;
10661;SDS011;5379;51.034;7.006;2023-04-16T17:15:14;3.50;;;3.23;;
10661;SDS011;5379;51.034;7.006;2023-04-16T17:17:41;4.60;;;4.30;;
10661;SDS011;5379;51.034;7.006;2023-04-16T17:20:09;4.57;;;4.13;;
10661;SDS011;5379;51.034;7.006;2023-04-16T17:22:36;3.13;;;2.93;;
10661;SDS011;5379;51.034;7.006;2023-04-16T17:25:04;3.10;;;2.90;;
10661;SDS011;5379;51.034;7.006;2023-04-16T17:27:32;4.47;;;4.13;;
10661;SDS011;5379;51.034;7.006;2023-04-16T17:29:59;3.43;;;3.23;;
10661;SDS011;5379;51.034;7.006;2023-04-16T17:32:28;5.13;;;4.10;;
10661;SDS011;5379;51.034;7.006;2023-04-16T17:34:56;3.27;;;2.97;;
10661;SDS011;5379;51.034;7.006;2023-04-16T17:37:24;3.87;;;3.57;;
10661;SDS011;5379;51.034;7.006;2023-04-16T17:39:51;3.77;;;3.57;;
10661;SDS011;5379;51.034;7.006;2023-04-16T17:42:18;5.00;;;4.50;;
10661;SDS011;5379;51.034;7.006;2023-04-16T17:44:45;6.53;;;5.20;;
10661;SDS011;5379;51.034;7.006;2023-04-16T17:47:12;6.33;;;5.67;;
10661;SDS011;5379;51.034;7.006;2023-04-16T17:49:41;6.10;;;5.50;;
10661;SDS011;5379;51.034;7.006;2023-04-16T17:52:08;6.63;;;5.93;;
10661;SDS011;5379;51.034;7.006;2023-04-16T17:54:35;6.27;;;5.33;;
10661;SDS011;5379;51.034;7.006;2023-04-16T17:57:02;6.40;;;5.90;;
10661;SDS011;5379;51.034;7.006;2023-04-16T17:59:29;5.93;;;5.33;;
10661;SDS011;5379;51.034;7.006;2023-04-16T18:01:56;5.77;;;5.17;;
10661;SDS011;5379;51.034;7.006;2023-04-16T18:04:23;8.37;;;6.37;;
10661;SDS011;5379;51.034;7.006;2023-04-16T18:06:51;5.87;;;5.33;;
10661;SDS011;5379;51.034;7.006;2023-04-16T18:09:18;5.27;;;4.87;;
10661;SDS011;5379;51.034;7.006;2023-04-16T18:11:45;5.00;;;4.50;;
10661;SDS011;5379;51.034;7.006;2023-04-16T18:14:12;6.00;;;5.50;;
10661;SDS011;5379;51.034;7.006;2023-04-16T18:16:44;5.40;;;4.93;;
10661;SDS011;5379;51.034;7.006;2023-04-16T18:19:11;6.27;;;5.67;;
10661;SDS011;5379;51.034;7.006;2023-04-16T18:21:39;4.93;;;4.57;;
10661;SDS011;5379;51.034;7.006;2023-04-16T18:24:07;8.60;;;5.53;;
10661;SDS011;5379;51.034;7.006;2023-04-16T18:26:34;9.40;;;6.27;;
10661;SDS011;5379;51.034;7.006;2023-04-16T18:29:01;6.07;;;5.53;;
10661;SDS011;5379;51.034;7.006;2023-04-16T18:31:28;7.17;;;6.20;;
10661;SDS011;5379;51.034;7.006;2023-04-16T18:33:55;7.17;;;6.47;;
10661;SDS011;5379;51.034;7.006;2023-04-16T18:36:22;8.17;;;6.77;;
10661;SDS011;5379;51.034;7.006;2023-04-16T18:38:50;6.53;;;5.93;;
10661;SDS011;5379;51.034;7.006;2023-04-16T18:41:18;8.47;;;6.00;;
10661;SDS011;5379;51.034;7.006;2023-04-16T18:43:46;5.57;;;5.17;;
10661;SDS011;5379;51.034;7.006;2023-04-16T18:46:13;6.77;;;5.93;;
10661;SDS011;5379;51.034;7.006;2023-04-16T18:48:40;6.50;;;5.93;;
10661;SDS011;5379;51.034;7.006;2023-04-16T18:51:08;12.63;;;6.50;;
10661;SDS011;5379;51.034;7.006;2023-04-16T18:53:36;7.47;;;6.67;;
10661;SDS011;5379;51.034;7.006;2023-04-16T18:56:03;11.63;;;5.43;;
10661;SDS011;5379;51.034;7.006;2023-04-16T18:58:32;10.43;;;7.80;;
10661;SDS011;5379;51.034;7.006;2023-04-16T19:00:59;7.57;;;6.07;;
10661;SDS011;5379;51.034;7.006;2023-04-16T19:03:26;7.17;;;6.50;;
10661;SDS011;5379;51.034;7.006;2023-04-16T19:05:53;8.17;;;7.37;;
10661;SDS011;5379;51.034;7.006;2023-04-16T19:08:20;9.07;;;7.10;;
10661;SDS011;5379;51.034;7.006;2023-04-16T19:10:48;7.43;;;6.60;;
10661;SDS011;5379;51.034;7.006;2023-04-16T19:13:15;7.83;;;7.03;;
10661;SDS011;5379;51.034;7.006;2023-04-16T19:15:44;7.40;;;6.80;;
10661;SDS011;5379;51.034;7.006;2023-04-16T19:18:10;7.20;;;6.57;;
10661;SDS011;5379;51.034;7.006;2023-04-16T19:20:37;26.13;;;7.73;;
10661;SDS011;5379;51.034;7.006;2023-04-16T19:23:04;8.80;;;7.37;;
10661;SDS011;5379;51.034;7.006;2023-04-16T19:25:33;9.90;;;7.13;;
10661;SDS011;5379;51.034;7.006;2023-04-16T19:28:04;8.50;;;7.53;;
10661;SDS011;5379;51.034;7.006;2023-04-16T19:30:31;14.90;;;7.37;;
10661;SDS011;5379;51.034;7.006;2023-04-16T19:32:59;9.63;;;7.57;;